This is the latest recevied weather packets stored in our database for station/object KC8YYF. If no packets are shown the sender has not sent any weather packets the latest 10 day(s).
| Time | Temp. | Humidity | Pressure | Rain* | Wind** | Luminosity | Snow |
|---|---|---|---|---|---|---|---|
| 1777891483 | 8.89° C | 73% | 1010.9 hPa | 0 mm | - | 2 W/m² | - |
| 1777891178 | 8.33° C | 76% | 1011.1 hPa | 0 mm | - | 1 W/m² | - |
| 1777890878 | 8.33° C | 74% | 1011.2 hPa | 0 mm | - | 1 W/m² | - |
| 1777890574 | 8.33° C | 74% | 1011.1 hPa | 0 mm | - | 0 W/m² | - |
| 1777890270 | 8.33° C | 75% | 1011 hPa | 0 mm | - | 0 W/m² | - |
| 1777889966 | 7.78° C | 78% | 1011 hPa | 0 mm | - | 0 W/m² | - |
| 1777889664 | 8.33° C | 78% | 1011.2 hPa | 0 mm | - | 0 W/m² | - |
| 1777889361 | 8.33° C | 78% | 1011.2 hPa | 0 mm | - | 0 W/m² | - |
| 1777889059 | 8.33° C | 76% | 1011.1 hPa | 0 mm | - | 0 W/m² | - |
| 1777888756 | 8.33° C | 76% | 1011.2 hPa | 0 mm | - | 0 W/m² | - |
| 1777888452 | 8.33° C | 75% | 1011.4 hPa | 0 mm | - | 0 W/m² | - |
| 1777888148 | 8.33° C | 77% | 1011.2 hPa | 0 mm | - | 0 W/m² | - |
| 1777887846 | 8.33° C | 76% | 1011.3 hPa | 0 mm | - | 0 W/m² | - |
| 1777887543 | 8.33° C | 76% | 1011.4 hPa | 0 mm | - | 0 W/m² | - |
| 1777887238 | 8.89° C | 75% | 1011.4 hPa | 0 mm | - | 0 W/m² | - |
| 1777886934 | 8.89° C | 75% | 1011.3 hPa | 0 mm | - | 0 W/m² | - |
| 1777886630 | 8.89° C | 72% | 1011.5 hPa | 0 mm | - | 0 W/m² | - |
| 1777886328 | 8.89° C | 72% | 1011.5 hPa | 0 mm | - | 0 W/m² | - |
| 1777886025 | 8.89° C | 73% | 1011.6 hPa | 0 mm | - | 0 W/m² | - |
| 1777885724 | 8.89° C | 73% | 1011.6 hPa | 0 mm | - | 0 W/m² | - |
| 1777885421 | 8.89° C | 75% | 1011.5 hPa | 0 mm | - | 0 W/m² | - |
| 1777885120 | 8.89° C | 71% | 1011.8 hPa | 0 mm | - | 0 W/m² | - |
| 1777884816 | 8.89° C | 76% | 1011.5 hPa | 0 mm | - | 0 W/m² | - |
| 1777884512 | 8.89° C | 75% | 1011.6 hPa | 0 mm | - | 0 W/m² | - |
| 1777884210 | 8.89° C | 74% | 1011.7 hPa | 0 mm | - | 0 W/m² | - |
* Rain latest hour (hover to see other rain measurements)
** Current wind speed in m/s (hover to see current wind gust speed)